createdAt,value
2023-01-02T00:00:48.186Z,97388.69
2023-01-02T00:03:50.062Z,97383.88
2023-01-02T00:06:51.700Z,97370.63
2023-01-02T00:09:54.379Z,97383.31
2023-01-02T00:12:55.871Z,97376.25
2023-01-02T00:15:57.403Z,97383.06
2023-01-02T00:18:58.978Z,97366.56
2023-01-02T00:22:00.486Z,97368.25
2023-01-02T00:25:02.254Z,97373.25
2023-01-02T00:28:04.019Z,97368.31
2023-01-02T00:31:07.820Z,97364.94
2023-01-02T00:34:09.357Z,97372.69
2023-01-02T00:37:10.900Z,97371.44
2023-01-02T00:40:13.924Z,97357.38
2023-01-02T00:43:16.851Z,97358.06
2023-01-02T00:46:18.834Z,97348.69
2023-01-02T00:49:20.399Z,97347.38
2023-01-02T00:52:22.002Z,97340.66
2023-01-02T00:55:23.694Z,97336.78
2023-01-02T00:58:25.227Z,97348.75
2023-01-02T01:01:26.794Z,97345.47
2023-01-02T01:04:28.594Z,97343.41
2023-01-02T01:07:30.099Z,97342.28
2023-01-02T01:10:31.578Z,97336.69
2023-01-02T01:13:33.147Z,97346.78
2023-01-02T01:16:34.805Z,97335.88
2023-01-02T01:19:36.416Z,97346.97
2023-01-02T01:22:38.461Z,97339.06
2023-01-02T01:25:39.995Z,97345.16
2023-01-02T01:28:41.497Z,97337.06
2023-01-02T01:31:43.111Z,97347.31
2023-01-02T01:34:44.803Z,97341.97
2023-01-02T01:37:46.330Z,97327.63
2023-01-02T01:40:47.856Z,97337.41
2023-01-02T01:43:52.336Z,97340.88
2023-01-02T01:46:53.965Z,97335.63
2023-01-02T01:50:08.031Z,97339.94
2023-01-02T01:53:15.253Z,97341.06
2023-01-02T01:56:17.589Z,97334.00
2023-01-02T01:59:19.594Z,97330.53
2023-01-02T02:02:22.886Z,97342.28
2023-01-02T02:05:28.736Z,97327.41
2023-01-02T02:08:36.306Z,97327.59
2023-01-02T02:11:38.493Z,97325.59
2023-01-02T02:14:40.060Z,97329.09
2023-01-02T02:18:06.533Z,97326.97
2023-01-02T02:21:35.622Z,97325.34
2023-01-02T02:25:01.888Z,97324.34
2023-01-02T02:28:44.982Z,97315.75
2023-01-02T02:32:16.724Z,97301.72
2023-01-02T02:35:24.018Z,97317.06
2023-01-02T02:38:25.475Z,97309.75
2023-01-02T02:41:35.566Z,97295.50
2023-01-02T02:45:02.736Z,97302.63
2023-01-02T02:48:53.450Z,97301.59
2023-01-02T02:52:02.700Z,97304.09
2023-01-02T02:55:44.680Z,97309.16
2023-01-02T02:58:46.491Z,97312.81
2023-01-02T03:01:48.128Z,97294.50
2023-01-02T03:04:58.298Z,97319.28
2023-01-02T03:08:21.998Z,97299.28
2023-01-02T03:11:32.201Z,97307.59
2023-01-02T03:14:43.130Z,97308.72
2023-01-02T03:18:28.050Z,97296.66
2023-01-02T03:21:35.998Z,97295.03
2023-01-02T03:24:38.665Z,97301.00
2023-01-02T03:27:45.059Z,97297.03
2023-01-02T03:30:49.378Z,97296.53
2023-01-02T03:33:58.963Z,97292.22
2023-01-02T03:37:08.195Z,97294.06
2023-01-02T03:40:19.725Z,97286.34
2023-01-02T03:43:26.204Z,97285.53
2023-01-02T03:46:41.915Z,97287.22
2023-01-02T03:49:48.199Z,97290.19
2023-01-02T03:52:49.706Z,97276.50
2023-01-02T03:56:19.036Z,97292.38
2023-01-02T04:00:05.726Z,97294.00
2023-01-02T04:03:21.838Z,97294.03
2023-01-02T04:06:31.977Z,97306.69
2023-01-02T04:09:36.024Z,97304.56
2023-01-02T04:12:40.322Z,97317.94
2023-01-02T04:15:44.738Z,97315.13
2023-01-02T04:19:01.575Z,97316.94
2023-01-02T04:22:09.585Z,97315.97
2023-01-02T04:25:14.543Z,97308.38
2023-01-02T04:28:23.558Z,97316.63
2023-01-02T04:31:50.261Z,97319.44
2023-01-02T04:34:53.733Z,97310.69
2023-01-02T04:37:55.269Z,97316.66
2023-01-02T04:40:58.771Z,97317.09
2023-01-02T04:44:00.827Z,97318.72
2023-01-02T04:47:02.339Z,97323.34
2023-01-02T04:50:05.732Z,97317.91
2023-01-02T04:53:07.246Z,97338.50
2023-01-02T04:56:08.856Z,97332.25
2023-01-02T04:59:10.346Z,97340.97
2023-01-02T05:02:11.890Z,97330.41
2023-01-02T05:05:13.450Z,97336.66
2023-01-02T05:08:16.616Z,97344.59
2023-01-02T05:11:19.959Z,97334.22
2023-01-02T05:14:21.543Z,97341.31
2023-01-02T05:17:23.061Z,97336.50
2023-01-02T05:20:24.655Z,97338.63
2023-01-02T05:23:44.732Z,97334.03
2023-01-02T05:26:46.345Z,97325.63
2023-01-02T05:29:47.843Z,97343.59
2023-01-02T05:32:49.411Z,97350.53
2023-01-02T05:35:50.919Z,97343.91
2023-01-02T05:38:52.970Z,97344.56
2023-01-02T05:41:54.520Z,97348.22
2023-01-02T05:44:56.118Z,97356.63
2023-01-02T05:47:57.628Z,97353.78
2023-01-02T05:51:02.650Z,97367.47
2023-01-02T05:54:04.935Z,97362.72
2023-01-02T05:57:06.937Z,97368.94
2023-01-02T06:00:08.986Z,97370.56
2023-01-02T06:03:14.369Z,97370.56
2023-01-02T06:06:17.341Z,97377.31
2023-01-02T06:09:18.880Z,97376.50
2023-01-02T06:12:20.463Z,97386.03
2023-01-02T06:15:22.119Z,97383.25
2023-01-02T06:18:24.078Z,97382.44
2023-01-02T06:21:25.984Z,97385.72
2023-01-02T06:24:27.778Z,97382.22
2023-01-02T06:27:32.113Z,97402.84
2023-01-02T06:30:33.730Z,97400.53
2023-01-02T06:33:35.678Z,97404.31
2023-01-02T06:36:37.226Z,97397.69
2023-01-02T06:39:39.340Z,97391.44
2023-01-02T06:42:43.372Z,97396.69
2023-01-02T06:45:44.878Z,97404.13
2023-01-02T06:48:47.119Z,97402.28
2023-01-02T06:51:48.614Z,97412.66
2023-01-02T06:54:50.186Z,97421.09
2023-01-02T06:57:51.679Z,97418.97
2023-01-02T07:00:53.350Z,97420.44
2023-01-02T07:03:55.828Z,97422.25
2023-01-02T07:06:57.423Z,97410.84
2023-01-02T07:09:58.930Z,97426.00
2023-01-02T07:13:00.405Z,97439.34
2023-01-02T07:16:03.937Z,97451.06
2023-01-02T07:19:05.525Z,97434.94
2023-01-02T07:22:07.046Z,97436.75
2023-01-02T07:25:08.882Z,97436.47
2023-01-02T07:28:10.374Z,97448.97
2023-01-02T07:31:15.164Z,97461.44
2023-01-02T07:34:16.873Z,97463.06
2023-01-02T07:37:18.415Z,97470.47
2023-01-02T07:40:19.919Z,97473.41
2023-01-02T07:43:21.697Z,97470.59
2023-01-02T07:46:24.186Z,97476.84
2023-01-02T07:49:25.782Z,97475.38
2023-01-02T07:52:27.272Z,97469.25
2023-01-02T07:55:28.751Z,97483.94
2023-01-02T07:58:31.292Z,97488.47
2023-01-02T08:01:32.945Z,97491.28
2023-01-02T08:04:36.302Z,97489.81
2023-01-02T08:07:44.474Z,97487.25
2023-01-02T08:10:46.446Z,97492.50
2023-01-02T08:13:48.062Z,97478.66
2023-01-02T08:16:49.633Z,97486.75
2023-01-02T08:19:51.158Z,97515.13
2023-01-02T08:22:53.027Z,97529.66
2023-01-02T08:26:01.572Z,97522.25
2023-01-02T08:29:03.327Z,97538.41
2023-01-02T08:32:05.202Z,97501.81
2023-01-02T08:35:07.902Z,97527.38
2023-01-02T08:38:09.448Z,97493.25
2023-01-02T08:41:11.240Z,97528.19
2023-01-02T08:44:12.769Z,97544.03
2023-01-02T08:47:14.310Z,97546.44
2023-01-02T08:50:16.233Z,97555.88
2023-01-02T08:53:18.254Z,97563.31
2023-01-02T08:56:25.245Z,97564.00
2023-01-02T08:59:26.830Z,97566.28
2023-01-02T09:02:28.625Z,97576.72
2023-01-02T09:05:30.963Z,97577.22
2023-01-02T09:08:32.519Z,97572.59
2023-01-02T09:11:36.873Z,97574.91
2023-01-02T09:14:38.493Z,97574.09
2023-01-02T09:17:40.159Z,97579.91
2023-01-02T09:20:41.710Z,97584.38
2023-01-02T09:23:43.758Z,97617.56
2023-01-02T09:26:45.265Z,97591.97
2023-01-02T09:29:46.848Z,97627.31
2023-01-02T09:32:50.620Z,97624.53
2023-01-02T09:35:55.003Z,97614.25
2023-01-02T09:39:00.397Z,97630.47
2023-01-02T09:42:10.792Z,97626.47
2023-01-02T09:45:13.235Z,97628.31
2023-01-02T09:48:19.103Z,97642.00
2023-01-02T09:51:20.839Z,97641.81
2023-01-02T09:54:28.280Z,97645.53
2023-01-02T09:57:30.053Z,97651.41
2023-01-02T10:00:35.549Z,97661.91
2023-01-02T10:04:01.360Z,97649.31
2023-01-02T10:07:31.842Z,97656.03
2023-01-02T10:10:40.617Z,97654.03
2023-01-02T10:14:17.960Z,97653.16
2023-01-02T10:17:15.607Z,97644.97
2023-01-02T10:20:30.431Z,97629.38
2023-01-02T10:23:47.517Z,97634.44
2023-01-02T10:26:53.900Z,97640.84
2023-01-02T10:30:21.824Z,97646.28
2023-01-02T10:33:30.270Z,97659.84
2023-01-02T10:36:33.251Z,97641.81
2023-01-02T10:39:34.839Z,97632.66
2023-01-02T10:42:36.401Z,97623.69
2023-01-02T10:45:37.998Z,97636.38
2023-01-02T10:48:48.350Z,97638.97
2023-01-02T10:52:03.182Z,97651.28
2023-01-02T10:55:05.246Z,97651.44
2023-01-02T10:58:25.118Z,97631.03
2023-01-02T11:01:27.750Z,97621.47
2023-01-02T11:04:30.647Z,97635.03
2023-01-02T11:07:34.477Z,97638.84
2023-01-02T11:10:38.560Z,97638.25
2023-01-02T11:13:54.374Z,97645.63
2023-01-02T11:17:04.093Z,97646.19
2023-01-02T11:20:18.670Z,97638.56
2023-01-02T11:23:25.917Z,97626.25
2023-01-02T11:26:28.896Z,97629.84
2023-01-02T11:29:37.885Z,97630.50
2023-01-02T11:32:41.271Z,97621.94
2023-01-02T11:35:47.373Z,97632.19
2023-01-02T11:38:50.752Z,97634.69
2023-01-02T11:42:22.304Z,97599.59
2023-01-02T11:45:25.517Z,97615.41
2023-01-02T11:48:28.667Z,97631.81
2023-01-02T11:51:34.588Z,97632.44
2023-01-02T11:54:42.053Z,97629.56
2023-01-02T11:57:54.587Z,97621.72
2023-01-02T12:01:19.263Z,97628.63
2023-01-02T12:04:22.229Z,97638.66
2023-01-02T12:07:42.603Z,97632.91
2023-01-02T12:11:13.409Z,97644.81
2023-01-02T12:14:22.153Z,97627.81
2023-01-02T12:17:31.959Z,97645.25
2023-01-02T12:21:14.670Z,97653.06
2023-01-02T12:24:31.945Z,97640.75
2023-01-02T12:27:46.291Z,97645.06
2023-01-02T12:31:10.103Z,97652.22
2023-01-02T12:34:32.811Z,97660.22
2023-01-02T12:37:49.011Z,97662.47
2023-01-02T12:41:06.367Z,97660.03
2023-01-02T12:44:21.958Z,97655.88
2023-01-02T12:47:42.298Z,97660.38
2023-01-02T12:50:57.402Z,97679.19
2023-01-02T12:54:21.068Z,97675.09
2023-01-02T12:57:33.950Z,97670.53
2023-01-02T13:00:54.237Z,97676.50
2023-01-02T13:04:16.038Z,97671.75
2023-01-02T13:07:48.561Z,97672.94
2023-01-02T13:10:50.582Z,97673.09
2023-01-02T13:13:53.681Z,97676.16
2023-01-02T13:17:15.067Z,97683.72
2023-01-02T13:20:19.537Z,97684.50
2023-01-02T13:23:40.356Z,97694.50
2023-01-02T13:26:42.535Z,97683.13
2023-01-02T13:29:45.909Z,97696.63
2023-01-02T13:32:47.818Z,97697.25
2023-01-02T13:35:49.899Z,97688.09
2023-01-02T13:38:54.827Z,97694.59
2023-01-02T13:42:19.068Z,97705.84
2023-01-02T13:45:29.354Z,97724.78
2023-01-02T13:48:45.377Z,97733.31
2023-01-02T13:51:48.008Z,97732.84
2023-01-02T13:55:31.112Z,97746.19
2023-01-02T13:58:57.520Z,97734.66
2023-01-02T14:02:00.221Z,97763.94
2023-01-02T14:05:40.593Z,97761.81
2023-01-02T14:09:04.671Z,97764.38
2023-01-02T14:12:12.629Z,97766.97
2023-01-02T14:15:20.478Z,97777.84
2023-01-02T14:18:46.667Z,97780.50
2023-01-02T14:21:54.687Z,97798.00
2023-01-02T14:25:03.830Z,97807.69
2023-01-02T14:28:07.135Z,97813.00
2023-01-02T14:31:32.758Z,97817.75
2023-01-02T14:34:42.121Z,97829.81
2023-01-02T14:37:50.476Z,97838.47
2023-01-02T14:40:52.742Z,97830.50
2023-01-02T14:43:56.288Z,97849.44
2023-01-02T14:46:58.583Z,97853.34
2023-01-02T14:50:02.931Z,97849.19
2023-01-02T14:53:26.742Z,97841.59
2023-01-02T14:56:33.962Z,97855.19
2023-01-02T14:59:42.321Z,97854.53
2023-01-02T15:02:47.770Z,97859.84
2023-01-02T15:05:57.584Z,97862.50
2023-01-02T15:09:06.259Z,97866.97
2023-01-02T15:12:42.571Z,97866.47
2023-01-02T15:15:48.896Z,97861.03
2023-01-02T15:18:57.399Z,97854.97
2023-01-02T15:21:59.119Z,97855.31
2023-01-02T15:25:01.005Z,97848.69
2023-01-02T15:28:02.990Z,97860.59
2023-01-02T15:31:13.714Z,97874.84
2023-01-02T15:34:54.719Z,97869.19
2023-01-02T15:37:56.973Z,97879.44
2023-01-02T15:40:58.899Z,97880.28
2023-01-02T15:44:18.828Z,97879.63
2023-01-02T15:47:27.599Z,97884.22
2023-01-02T15:50:32.106Z,97876.13
2023-01-02T15:53:42.847Z,97887.06
2023-01-02T15:56:44.678Z,97891.03
2023-01-02T15:59:47.384Z,97887.38
2023-01-02T16:02:48.980Z,97895.66
2023-01-02T16:05:56.461Z,97899.31
2023-01-02T16:09:00.117Z,97897.31
2023-01-02T16:12:03.362Z,97909.06
2023-01-02T16:15:44.982Z,97914.69
2023-01-02T16:18:59.604Z,97903.44
2023-01-02T16:22:17.736Z,97920.31
2023-01-02T16:25:36.786Z,97914.72
2023-01-02T16:28:42.426Z,97944.81
2023-01-02T16:31:58.712Z,97942.66
2023-01-02T16:35:04.529Z,97930.41
2023-01-02T16:38:26.871Z,97953.44
2023-01-02T16:41:37.029Z,97965.84
2023-01-02T16:44:38.673Z,97943.00
2023-01-02T16:47:43.232Z,97957.22
2023-01-02T16:50:46.041Z,97944.47
2023-01-02T16:53:47.550Z,97955.22
2023-01-02T16:56:50.021Z,97944.13
2023-01-02T16:59:51.567Z,97948.91
2023-01-02T17:02:53.418Z,97958.22
2023-01-02T17:06:01.249Z,97966.00
2023-01-02T17:09:04.196Z,97968.47
2023-01-02T17:12:06.019Z,97966.81
2023-01-02T17:15:08.837Z,98010.22
2023-01-02T17:18:10.761Z,97992.34
2023-01-02T17:21:12.875Z,97981.69
2023-01-02T17:24:18.155Z,97979.53
2023-01-02T17:27:20.765Z,97979.69
2023-01-02T17:30:22.861Z,97997.56
2023-01-02T17:33:24.468Z,97994.59
2023-01-02T17:36:26.088Z,98004.53
2023-01-02T17:39:27.645Z,98013.09
2023-01-02T17:42:36.514Z,98011.03
2023-01-02T17:53:47.981Z,97999.69
2023-01-02T17:57:00.980Z,97998.38
2023-01-02T18:00:09.149Z,98018.97
2023-01-02T18:03:14.368Z,98018.66
2023-01-02T18:06:28.289Z,98027.59
2023-01-02T18:09:29.898Z,98016.50
2023-01-02T18:12:32.135Z,98026.59
2023-01-02T18:15:33.714Z,98034.84
2023-01-02T18:18:36.813Z,98038.50
2023-01-02T18:21:38.894Z,98029.25
2023-01-02T18:24:41.848Z,98040.16
2023-01-02T18:27:43.402Z,98048.94
2023-01-02T18:30:45.100Z,98041.16
2023-01-02T18:33:47.247Z,98038.53
2023-01-02T18:36:49.959Z,98037.41
2023-01-02T18:39:52.382Z,98046.00
2023-01-02T18:43:01.390Z,98049.47
2023-01-02T18:46:23.793Z,98054.75
2023-01-02T18:49:29.560Z,98062.84
2023-01-02T18:52:33.558Z,98048.94
2023-01-02T18:55:40.248Z,98038.50
2023-01-02T18:58:51.609Z,98059.69
2023-01-02T19:02:04.777Z,98045.13
2023-01-02T19:05:35.777Z,98059.19
2023-01-02T19:08:37.591Z,98064.97
2023-01-02T19:11:57.831Z,98065.78
2023-01-02T19:15:00.916Z,98081.00
2023-01-02T19:18:19.769Z,98081.97
2023-01-02T19:21:30.161Z,98098.03
2023-01-02T19:24:36.172Z,98097.31
2023-01-02T19:27:39.247Z,98099.31
2023-01-02T19:30:45.596Z,98102.06
2023-01-02T19:33:56.282Z,98102.56
2023-01-02T19:37:11.601Z,98112.13
2023-01-02T19:40:19.960Z,98106.16
2023-01-02T19:43:21.755Z,98117.91
2023-01-02T19:46:23.405Z,98119.88
2023-01-02T19:49:24.933Z,98129.47
2023-01-02T19:52:28.297Z,98129.63
2023-01-02T19:55:30.174Z,98125.78
2023-01-02T19:58:32.114Z,98127.41
2023-01-02T20:01:33.819Z,98122.13
2023-01-02T20:04:35.420Z,98128.34
2023-01-02T20:07:36.982Z,98138.38
2023-01-02T20:10:38.473Z,98142.28
2023-01-02T20:13:40.026Z,98135.50
2023-01-02T20:16:41.704Z,98141.56
2023-01-02T20:19:43.777Z,98152.44
2023-01-02T20:22:46.125Z,98157.19
2023-01-02T20:25:47.936Z,98159.84
2023-01-02T20:28:49.443Z,98159.03
2023-01-02T20:31:51.851Z,98155.91
2023-01-02T20:34:53.993Z,98158.88
2023-01-02T20:37:55.583Z,98159.56
2023-01-02T20:40:57.680Z,98163.84
2023-01-02T20:44:00.840Z,98159.56
2023-01-02T20:47:02.445Z,98158.16
2023-01-02T20:50:05.057Z,98159.94
2023-01-02T20:53:07.760Z,98162.72
2023-01-02T20:56:09.706Z,98167.00
2023-01-02T20:59:11.269Z,98176.75
2023-01-02T21:02:12.967Z,98178.88
2023-01-02T21:05:15.383Z,98182.34
2023-01-02T21:08:17.035Z,98186.25
2023-01-02T21:11:18.591Z,98196.69
2023-01-02T21:14:20.120Z,98188.84
2023-01-02T21:17:21.714Z,98193.13
2023-01-02T21:20:23.231Z,98201.38
2023-01-02T21:23:26.515Z,98208.91
2023-01-02T21:26:28.176Z,98193.75
2023-01-02T21:29:29.653Z,98210.28
2023-01-02T21:32:31.166Z,98209.31
2023-01-02T21:35:33.704Z,98214.59
2023-01-02T21:38:36.194Z,98222.91
2023-01-02T21:41:56.102Z,98224.28
2023-01-02T21:44:57.633Z,98241.38
2023-01-02T21:47:59.346Z,98251.56
2023-01-02T21:51:01.196Z,98243.28
2023-01-02T21:54:03.055Z,98247.34
2023-01-02T21:57:05.211Z,98239.19
2023-01-02T22:00:07.704Z,98245.88
2023-01-02T22:03:10.600Z,98243.78
2023-01-02T22:06:12.238Z,98252.84
2023-01-02T22:09:13.940Z,98242.69
2023-01-02T22:12:15.508Z,98250.91
2023-01-02T22:15:17.546Z,98243.69
2023-01-02T22:18:19.152Z,98240.06
2023-01-02T22:21:20.643Z,98226.59
2023-01-02T22:24:25.589Z,98222.28
2023-01-02T22:27:27.550Z,98223.41
2023-01-02T22:30:34.447Z,98236.59
2023-01-02T22:33:37.780Z,98236.19
2023-01-02T22:36:39.550Z,98248.69
2023-01-02T22:39:41.861Z,98260.47
2023-01-02T22:43:04.489Z,98267.28
2023-01-02T22:46:23.580Z,98271.84
2023-01-02T22:49:27.722Z,98284.91
2023-01-02T22:52:30.018Z,98291.47
2023-01-02T22:55:31.555Z,98293.00
2023-01-02T22:58:33.128Z,98303.56
2023-01-02T23:01:38.126Z,98305.22
2023-01-02T23:04:39.974Z,98305.59
2023-01-02T23:07:41.603Z,98309.94
2023-01-02T23:10:43.182Z,98304.94
2023-01-02T23:13:45.208Z,98306.88
2023-01-02T23:17:05.343Z,98306.06
2023-01-02T23:20:07.498Z,98306.88
2023-01-02T23:23:09.142Z,98307.31
2023-01-02T23:26:13.525Z,98321.44
2023-01-02T23:29:15.859Z,98319.78
2023-01-02T23:32:19.767Z,98325.34
2023-01-02T23:35:21.465Z,98318.97
2023-01-02T23:38:23.027Z,98321.44
2023-01-02T23:41:24.604Z,98318.97
2023-01-02T23:44:26.406Z,98320.75
2023-01-02T23:47:28.102Z,98312.56
2023-01-02T23:50:30.544Z,98307.72
2023-01-02T23:53:32.384Z,98293.13
2023-01-02T23:56:36.391Z,98302.28
2023-01-02T23:59:37.879Z,98298.25
